createdAt,value
2023-01-01T00:01:31.165Z,53.90
2023-01-01T00:03:59.505Z,53.80
2023-01-01T00:06:26.961Z,53.80
2023-01-01T00:09:14.169Z,53.70
2023-01-01T00:11:41.421Z,53.40
2023-01-01T00:14:12.448Z,53.40
2023-01-01T00:16:40.137Z,53.50
2023-01-01T00:19:07.532Z,53.60
2023-01-01T00:21:34.897Z,53.60
2023-01-01T00:24:02.600Z,53.60
2023-01-01T00:26:34.891Z,53.60
2023-01-01T00:29:03.477Z,53.70
2023-01-01T00:31:31.124Z,53.80
2023-01-01T00:33:58.877Z,53.90
2023-01-01T00:36:27.555Z,53.90
2023-01-01T00:38:55.332Z,54.00
2023-01-01T00:41:23.163Z,54.00
2023-01-01T00:43:51.451Z,54.00
2023-01-01T00:46:18.858Z,54.00
2023-01-01T00:48:46.239Z,54.00
2023-01-01T00:51:13.555Z,54.00
2023-01-01T00:53:41.187Z,54.10
2023-01-01T00:56:08.571Z,54.10
2023-01-01T00:58:35.953Z,54.00
2023-01-01T01:01:03.437Z,54.00
2023-01-01T01:03:31.053Z,54.10
2023-01-01T01:05:59.828Z,54.10
2023-01-01T01:08:30.969Z,54.70
2023-01-01T01:11:11.541Z,54.10
2023-01-01T01:13:39.513Z,54.20
2023-01-01T01:16:18.723Z,54.20
2023-01-01T01:18:46.563Z,54.20
2023-01-01T01:21:18.087Z,54.20
2023-01-01T01:23:45.688Z,54.30
2023-01-01T01:26:14.768Z,54.30
2023-01-01T01:28:48.820Z,54.40
2023-01-01T01:31:17.375Z,54.40
2023-01-01T01:33:45.089Z,54.40
2023-01-01T01:36:13.126Z,54.40
2023-01-01T01:38:40.524Z,54.40
2023-01-01T01:41:08.477Z,54.50
2023-01-01T01:43:36.808Z,54.60
2023-01-01T01:46:04.569Z,54.60
2023-01-01T01:48:37.820Z,54.70
2023-01-01T01:51:05.515Z,54.70
2023-01-01T01:53:34.059Z,54.70
2023-01-01T01:56:03.369Z,54.80
2023-01-01T01:58:32.009Z,55.60
2023-01-01T02:00:59.816Z,54.90
2023-01-01T02:03:45.263Z,54.90
2023-01-01T02:06:13.648Z,55.00
2023-01-01T02:08:41.993Z,55.00
2023-01-01T02:11:09.251Z,55.00
2023-01-01T02:13:40.252Z,55.10
2023-01-01T02:16:10.839Z,55.10
2023-01-01T02:18:41.174Z,55.20
2023-01-01T02:21:11.755Z,55.20
2023-01-01T02:23:46.370Z,55.20
2023-01-01T02:26:21.452Z,55.20
2023-01-01T02:29:01.594Z,55.20
2023-01-01T02:31:32.255Z,55.20
2023-01-01T02:34:02.455Z,55.10
2023-01-01T02:36:32.034Z,55.20
2023-01-01T02:39:01.888Z,55.20
2023-01-01T02:41:31.780Z,55.30
2023-01-01T02:46:30.796Z,55.30
2023-01-01T02:48:58.085Z,55.30
2023-01-01T02:51:43.944Z,55.90
2023-01-01T02:54:25.955Z,55.30
2023-01-01T02:57:19.338Z,55.40
2023-01-01T03:00:05.293Z,55.40
2023-01-01T03:02:38.974Z,55.40
2023-01-01T03:05:10.993Z,55.50
2023-01-01T03:07:53.368Z,55.50
2023-01-01T03:10:27.700Z,55.50
2023-01-01T03:12:57.029Z,55.50
2023-01-01T03:15:24.334Z,55.50
2023-01-01T03:17:57.738Z,55.50
2023-01-01T03:20:27.176Z,55.50
2023-01-01T03:22:56.012Z,55.60
2023-01-01T03:25:25.973Z,55.60
2023-01-01T03:27:57.625Z,55.60
2023-01-01T03:30:25.244Z,55.60
2023-01-01T03:33:01.514Z,55.60
2023-01-01T03:35:32.559Z,55.70
2023-01-01T03:38:00.834Z,55.70
2023-01-01T03:40:28.499Z,55.60
2023-01-01T03:42:57.918Z,55.60
2023-01-01T03:45:34.023Z,55.60
2023-01-01T03:48:01.386Z,55.70
2023-01-01T03:50:35.849Z,55.70
2023-01-01T03:53:10.395Z,55.70
2023-01-01T03:55:42.176Z,55.80
2023-01-01T03:58:32.794Z,55.70
2023-01-01T04:01:02.363Z,55.70
2023-01-01T04:03:30.830Z,55.70
2023-01-01T04:05:58.470Z,55.80
2023-01-01T04:08:25.760Z,55.70
2023-01-01T04:10:55.491Z,55.80
2023-01-01T04:13:23.208Z,55.80
2023-01-01T04:15:50.726Z,55.80
2023-01-01T04:18:18.119Z,55.80
2023-01-01T04:20:45.387Z,55.80
2023-01-01T04:23:12.728Z,55.80
2023-01-01T04:25:39.980Z,55.80
2023-01-01T04:28:07.300Z,55.80
2023-01-01T04:33:01.640Z,55.80
2023-01-01T04:35:28.925Z,55.80
2023-01-01T04:37:56.400Z,55.80
2023-01-01T04:40:23.686Z,55.80
2023-01-01T04:42:53.671Z,55.80
2023-01-01T04:45:20.970Z,55.80
2023-01-01T04:47:48.266Z,55.80
2023-01-01T04:50:15.572Z,55.80
2023-01-01T04:52:43.943Z,55.80
2023-01-01T04:55:11.290Z,55.90
2023-01-01T04:57:38.619Z,55.90
2023-01-01T05:00:06.129Z,55.90
2023-01-01T05:02:34.661Z,55.90
2023-01-01T05:05:02.032Z,55.90
2023-01-01T05:07:29.380Z,55.90
2023-01-01T05:09:56.630Z,55.90
2023-01-01T05:12:25.018Z,55.90
2023-01-01T05:14:52.308Z,56.00
2023-01-01T05:17:19.553Z,55.90
2023-01-01T05:19:46.883Z,55.90
2023-01-01T05:22:14.279Z,56.00
2023-01-01T05:24:41.540Z,56.00
2023-01-01T05:27:08.883Z,55.90
2023-01-01T05:29:37.227Z,55.90
2023-01-01T05:32:04.647Z,55.90
2023-01-01T05:36:59.190Z,56.00
2023-01-01T05:39:26.545Z,55.90
2023-01-01T05:41:54.210Z,56.00
2023-01-01T05:44:21.537Z,56.70
2023-01-01T05:46:48.838Z,56.10
2023-01-01T05:49:16.165Z,55.90
2023-01-01T05:51:43.533Z,55.90
2023-01-01T05:56:37.073Z,56.00
2023-01-01T05:59:04.338Z,56.00
2023-01-01T06:01:32.024Z,56.00
2023-01-01T06:03:59.989Z,56.10
2023-01-01T06:06:33.451Z,56.00
2023-01-01T06:09:02.127Z,56.00
2023-01-01T06:11:30.409Z,56.00
2023-01-01T06:13:59.307Z,56.00
2023-01-01T06:16:27.768Z,56.00
2023-01-01T06:18:55.416Z,56.00
2023-01-01T06:21:23.878Z,56.00
2023-01-01T06:23:51.246Z,56.00
2023-01-01T06:26:22.975Z,55.90
2023-01-01T06:28:50.681Z,55.90
2023-01-01T06:31:19.644Z,55.90
2023-01-01T06:33:48.992Z,55.90
2023-01-01T06:36:17.221Z,55.80
2023-01-01T06:38:48.332Z,55.80
2023-01-01T06:41:17.069Z,55.80
2023-01-01T06:43:44.474Z,55.80
2023-01-01T06:46:14.592Z,55.80
2023-01-01T06:48:42.391Z,55.80
2023-01-01T06:51:14.395Z,55.80
2023-01-01T06:53:43.206Z,55.80
2023-01-01T06:56:10.812Z,55.80
2023-01-01T06:58:38.103Z,55.70
2023-01-01T07:01:08.666Z,55.70
2023-01-01T07:03:36.787Z,55.70
2023-01-01T07:06:04.450Z,56.40
2023-01-01T07:08:31.707Z,55.80
2023-01-01T07:10:59.069Z,55.70
2023-01-01T07:13:26.916Z,55.70
2023-01-01T07:15:54.411Z,55.70
2023-01-01T07:18:22.751Z,55.70
2023-01-01T07:20:51.624Z,55.70
2023-01-01T07:23:19.082Z,56.00
2023-01-01T07:25:48.707Z,55.80
2023-01-01T07:28:15.949Z,55.70
2023-01-01T07:30:43.321Z,55.70
2023-01-01T07:33:14.556Z,55.70
2023-01-01T07:35:41.831Z,55.60
2023-01-01T07:38:09.040Z,55.70
2023-01-01T07:40:36.317Z,55.60
2023-01-01T07:43:04.050Z,55.80
2023-01-01T07:45:31.855Z,55.80
2023-01-01T07:47:59.953Z,55.60
2023-01-01T07:50:28.559Z,55.60
2023-01-01T07:52:56.087Z,55.60
2023-01-01T07:55:23.342Z,55.60
2023-01-01T07:57:50.779Z,55.60
2023-01-01T08:00:19.205Z,55.60
2023-01-01T08:02:46.974Z,55.60
2023-01-01T08:05:14.400Z,55.70
2023-01-01T08:07:45.492Z,55.60
2023-01-01T08:10:12.775Z,55.60
2023-01-01T08:12:40.275Z,55.60
2023-01-01T08:15:07.944Z,55.60
2023-01-01T08:17:35.239Z,55.60
2023-01-01T08:20:02.476Z,55.60
2023-01-01T08:22:29.902Z,55.60
2023-01-01T08:24:57.221Z,56.30
2023-01-01T08:27:24.496Z,55.80
2023-01-01T08:29:51.828Z,55.80
2023-01-01T08:32:19.187Z,55.70
2023-01-01T08:34:46.730Z,56.00
2023-01-01T08:37:14.516Z,55.80
2023-01-01T08:39:42.043Z,55.80
2023-01-01T08:42:12.384Z,55.80
2023-01-01T08:44:39.999Z,55.90
2023-01-01T08:47:07.249Z,55.80
2023-01-01T08:49:34.501Z,55.80
2023-01-01T08:52:02.272Z,55.90
2023-01-01T08:54:30.178Z,55.80
2023-01-01T08:56:57.610Z,55.80
2023-01-01T08:59:25.537Z,55.70
2023-01-01T09:01:54.159Z,55.80
2023-01-01T09:04:21.593Z,55.80
2023-01-01T09:06:48.899Z,55.90
2023-01-01T09:09:16.133Z,55.90
2023-01-01T09:11:53.215Z,55.90
2023-01-01T09:14:20.827Z,56.00
2023-01-01T09:16:48.274Z,56.10
2023-01-01T09:19:15.609Z,55.70
2023-01-01T09:21:43.940Z,55.60
2023-01-01T09:24:11.296Z,55.60
2023-01-01T09:26:38.584Z,55.40
2023-01-01T09:29:05.975Z,55.50
2023-01-01T09:31:33.643Z,55.40
2023-01-01T09:34:01.009Z,55.40
2023-01-01T09:36:29.805Z,55.30
2023-01-01T09:38:57.783Z,55.40
2023-01-01T09:41:28.055Z,55.40
2023-01-01T09:44:01.592Z,55.50
2023-01-01T09:46:31.917Z,55.40
2023-01-01T09:49:01.107Z,55.70
2023-01-01T09:51:30.787Z,55.60
2023-01-01T09:54:11.592Z,55.70
2023-01-01T09:56:40.884Z,55.70
2023-01-01T09:59:10.297Z,55.70
2023-01-01T10:02:01.250Z,55.70
2023-01-01T10:04:47.139Z,55.60
2023-01-01T10:07:35.795Z,55.70
2023-01-01T10:10:07.084Z,55.40
2023-01-01T10:12:41.399Z,55.40
2023-01-01T10:15:18.940Z,55.20
2023-01-01T10:17:47.995Z,55.20
2023-01-01T10:20:20.204Z,55.20
2023-01-01T10:22:49.638Z,55.10
2023-01-01T10:25:25.606Z,55.00
2023-01-01T10:28:00.434Z,54.80
2023-01-01T10:30:28.499Z,54.80
2023-01-01T10:32:56.482Z,54.80
2023-01-01T10:35:31.357Z,54.70
2023-01-01T10:37:59.543Z,54.50
2023-01-01T10:40:28.152Z,54.40
2023-01-01T10:42:56.445Z,54.40
2023-01-01T10:45:42.682Z,54.40
2023-01-01T10:48:10.014Z,54.30
2023-01-01T10:50:44.512Z,54.20
2023-01-01T10:53:20.786Z,54.10
2023-01-01T10:55:49.210Z,54.10
2023-01-01T10:58:26.566Z,54.10
2023-01-01T11:01:01.320Z,54.10
2023-01-01T11:03:28.964Z,54.00
2023-01-01T11:06:15.168Z,54.10
2023-01-01T11:08:47.488Z,54.20
2023-01-01T11:11:22.295Z,54.20
2023-01-01T11:13:52.252Z,54.20
2023-01-01T11:16:19.923Z,54.20
2023-01-01T11:18:48.083Z,54.10
2023-01-01T11:21:20.111Z,54.10
2023-01-01T11:23:47.669Z,54.20
2023-01-01T11:26:20.686Z,54.20
2023-01-01T11:29:01.796Z,54.30
2023-01-01T11:31:37.214Z,54.10
2023-01-01T11:34:11.871Z,54.20
2023-01-01T11:36:39.167Z,54.10
2023-01-01T11:39:15.461Z,54.20
2023-01-01T11:41:45.196Z,54.20
2023-01-01T11:44:13.968Z,54.20
2023-01-01T11:46:41.285Z,54.30
2023-01-01T11:49:13.847Z,54.20
2023-01-01T11:51:41.202Z,54.20
2023-01-01T11:54:21.188Z,54.20
2023-01-01T11:56:49.977Z,54.20
2023-01-01T11:59:18.738Z,54.30
2023-01-01T12:01:49.191Z,54.30
2023-01-01T12:04:31.560Z,54.40
2023-01-01T12:07:06.407Z,54.40
2023-01-01T12:09:45.350Z,54.20
2023-01-01T12:12:18.523Z,54.30
2023-01-01T12:14:53.298Z,54.40
2023-01-01T12:17:23.692Z,54.50
2023-01-01T12:19:57.160Z,54.40
2023-01-01T12:22:25.933Z,54.40
2023-01-01T12:24:53.808Z,54.40
2023-01-01T12:27:34.714Z,54.50
2023-01-01T12:30:13.645Z,54.50
2023-01-01T12:33:05.752Z,54.50
2023-01-01T12:35:47.426Z,54.50
2023-01-01T12:38:23.778Z,54.50
2023-01-01T12:40:51.893Z,54.60
2023-01-01T12:43:22.257Z,54.50
2023-01-01T12:46:12.294Z,54.60
2023-01-01T12:48:59.866Z,54.60
2023-01-01T12:51:27.414Z,54.60
2023-01-01T12:54:09.170Z,54.60
2023-01-01T12:56:43.564Z,54.60
2023-01-01T12:59:32.313Z,54.70
2023-01-01T13:02:02.326Z,54.60
2023-01-01T13:04:30.129Z,54.70
2023-01-01T13:07:06.850Z,54.70
2023-01-01T13:09:35.697Z,54.70
2023-01-01T13:12:10.670Z,54.60
2023-01-01T13:14:41.880Z,54.60
2023-01-01T13:17:25.600Z,54.60
2023-01-01T13:19:57.621Z,54.60
2023-01-01T13:22:36.222Z,54.60
2023-01-01T13:25:09.237Z,54.60
2023-01-01T13:27:55.022Z,54.60
2023-01-01T13:30:38.074Z,54.70
2023-01-01T13:33:11.347Z,54.80
2023-01-01T13:35:38.700Z,54.70
2023-01-01T13:38:25.961Z,54.70
2023-01-01T13:40:53.476Z,54.70
2023-01-01T13:43:20.951Z,54.70
2023-01-01T13:46:13.450Z,54.70
2023-01-01T13:49:01.138Z,54.70
2023-01-01T13:52:04.297Z,54.70
2023-01-01T13:54:26.819Z,54.70
2023-01-01T13:56:57.318Z,54.70
2023-01-01T13:59:33.805Z,54.70
2023-01-01T14:02:17.316Z,54.90
2023-01-01T14:04:44.709Z,54.90
2023-01-01T14:10:25.672Z,55.10
2023-01-01T14:12:53.848Z,55.10
2023-01-01T14:15:26.134Z,55.10
2023-01-01T14:17:54.429Z,55.50
2023-01-01T14:20:22.933Z,55.30
2023-01-01T14:22:52.260Z,55.30
2023-01-01T14:25:28.450Z,55.30
2023-01-01T14:27:56.907Z,55.40
2023-01-01T14:30:24.707Z,55.40
2023-01-01T14:32:56.200Z,55.40
2023-01-01T14:35:23.550Z,55.40
2023-01-01T14:37:50.988Z,55.40
2023-01-01T14:40:26.673Z,55.40
2023-01-01T14:43:11.005Z,55.40
2023-01-01T14:45:42.260Z,55.40
2023-01-01T14:48:18.917Z,55.40
2023-01-01T14:50:50.696Z,55.40
2023-01-01T14:53:21.408Z,55.40
2023-01-01T14:55:49.733Z,55.40
2023-01-01T14:58:23.975Z,55.50
2023-01-01T15:00:51.791Z,55.40
2023-01-01T15:03:20.336Z,55.50
2023-01-01T15:06:00.658Z,55.50
2023-01-01T15:08:28.286Z,55.50
2023-01-01T15:10:55.932Z,55.50
2023-01-01T15:13:27.835Z,55.50
2023-01-01T15:15:56.504Z,55.50
2023-01-01T15:18:36.846Z,55.50
2023-01-01T15:21:07.651Z,55.70
2023-01-01T15:23:36.245Z,55.60
2023-01-01T15:26:07.451Z,55.60
2023-01-01T15:28:35.262Z,55.70
2023-01-01T15:31:03.048Z,55.60
2023-01-01T15:33:30.438Z,55.60
2023-01-01T15:36:02.862Z,55.40
2023-01-01T15:38:34.511Z,55.50
2023-01-01T15:41:01.901Z,55.30
2023-01-01T15:43:31.501Z,55.20
2023-01-01T15:46:17.493Z,55.20
2023-01-01T15:48:49.443Z,55.00
2023-01-01T15:51:18.802Z,54.70
2023-01-01T15:53:46.383Z,54.50
2023-01-01T15:56:14.520Z,55.00
2023-01-01T15:58:54.199Z,54.10
2023-01-01T16:01:22.891Z,53.90
2023-01-01T16:03:52.439Z,53.70
2023-01-01T16:06:21.488Z,53.60
2023-01-01T16:08:48.969Z,53.50
2023-01-01T16:11:16.255Z,53.30
2023-01-01T16:13:43.653Z,53.20
2023-01-01T16:16:22.238Z,53.20
2023-01-01T16:18:51.056Z,53.10
2023-01-01T16:21:21.480Z,53.00
2023-01-01T16:23:49.836Z,53.00
2023-01-01T16:26:17.099Z,53.00
2023-01-01T16:28:44.387Z,53.00
2023-01-01T16:31:17.143Z,53.00
2023-01-01T16:33:48.149Z,52.90
2023-01-01T16:36:15.445Z,53.10
2023-01-01T16:38:42.710Z,53.10
2023-01-01T16:41:14.037Z,53.10
2023-01-01T16:43:42.075Z,53.10
2023-01-01T16:46:13.336Z,53.10
2023-01-01T16:48:41.173Z,53.00
2023-01-01T16:51:16.352Z,53.00
2023-01-01T16:53:43.770Z,53.00
2023-01-01T16:56:11.645Z,53.00
2023-01-01T16:58:49.049Z,53.10
2023-01-01T17:01:18.065Z,53.00
2023-01-01T17:03:45.565Z,52.90
2023-01-01T17:06:14.488Z,52.80
2023-01-01T17:08:42.194Z,52.80
2023-01-01T17:11:14.088Z,52.60
2023-01-01T17:13:41.882Z,52.80
2023-01-01T17:16:09.779Z,52.80
2023-01-01T17:19:13.178Z,52.70
2023-01-01T17:21:24.865Z,52.60
2023-01-01T17:23:53.541Z,52.60
2023-01-01T17:26:21.955Z,52.50
2023-01-01T17:28:53.687Z,52.30
2023-01-01T17:31:28.884Z,52.10
2023-01-01T17:33:56.927Z,52.20
2023-01-01T17:36:24.533Z,52.20
2023-01-01T17:38:51.868Z,52.20
2023-01-01T17:41:19.302Z,52.20
2023-01-01T17:43:48.200Z,52.10
2023-01-01T17:46:16.702Z,52.10
2023-01-01T17:48:44.605Z,52.00
2023-01-01T17:51:12.617Z,51.90
2023-01-01T17:53:40.181Z,52.00
2023-01-01T17:56:08.007Z,51.90
2023-01-01T17:58:35.931Z,51.90
2023-01-01T18:01:12.557Z,52.00
2023-01-01T18:03:41.019Z,52.10
2023-01-01T18:06:08.725Z,52.30
2023-01-01T18:08:36.015Z,52.60
2023-01-01T18:11:03.703Z,52.20
2023-01-01T18:13:34.032Z,52.30
2023-01-01T18:16:02.583Z,52.60
2023-01-01T18:18:32.757Z,52.60
2023-01-01T18:21:21.309Z,52.40
2023-01-01T18:23:50.221Z,52.60
2023-01-01T18:26:18.728Z,52.40
2023-01-01T18:28:51.133Z,52.50
2023-01-01T18:31:18.724Z,52.40
2023-01-01T18:33:49.317Z,52.50
2023-01-01T18:36:19.854Z,52.70
2023-01-01T18:38:59.121Z,52.50
2023-01-01T18:41:35.920Z,52.50
2023-01-01T18:44:03.610Z,52.50
2023-01-01T18:46:33.807Z,52.40
2023-01-01T18:49:02.561Z,52.60
2023-01-01T18:51:29.941Z,52.90
2023-01-01T18:54:00.362Z,52.60
2023-01-01T18:56:30.843Z,52.50
2023-01-01T18:59:02.710Z,52.80
2023-01-01T19:01:37.985Z,52.70
2023-01-01T19:04:08.914Z,52.80
2023-01-01T19:06:36.711Z,53.10
2023-01-01T19:09:16.831Z,53.30
2023-01-01T19:11:45.626Z,53.40
2023-01-01T19:14:18.482Z,53.20
2023-01-01T19:16:49.059Z,53.10
2023-01-01T19:19:23.480Z,53.30
2023-01-01T19:22:01.185Z,53.30
2023-01-01T19:24:33.730Z,53.40
2023-01-01T19:27:13.753Z,53.40
2023-01-01T19:29:43.027Z,53.30
2023-01-01T19:32:17.358Z,53.30
2023-01-01T19:34:44.871Z,53.10
2023-01-01T19:37:12.334Z,53.30
2023-01-01T19:39:42.392Z,53.30
2023-01-01T19:42:11.739Z,53.20
2023-01-01T19:44:42.158Z,53.30
2023-01-01T19:47:10.708Z,53.70
2023-01-01T19:49:37.978Z,53.10
2023-01-01T19:52:07.468Z,53.20
2023-01-01T19:54:34.727Z,53.20
2023-01-01T19:57:02.040Z,53.20
2023-01-01T19:59:33.291Z,53.20
2023-01-01T20:02:43.528Z,53.30
2023-01-01T20:04:50.089Z,53.40
2023-01-01T20:07:17.757Z,53.40
2023-01-01T20:09:45.072Z,53.40
2023-01-01T20:12:12.459Z,53.50
2023-01-01T20:14:39.745Z,53.50
2023-01-01T20:17:07.051Z,53.70
2023-01-01T20:19:35.682Z,53.60
2023-01-01T20:22:17.853Z,53.60
2023-01-01T20:24:45.283Z,53.80
2023-01-01T20:27:13.971Z,53.90
2023-01-01T20:29:41.342Z,53.80
2023-01-01T20:32:13.052Z,53.90
2023-01-01T20:34:40.619Z,54.50
2023-01-01T20:37:26.801Z,53.90
2023-01-01T20:39:54.159Z,53.80
2023-01-01T20:42:21.578Z,53.90
2023-01-01T20:44:48.883Z,53.90
2023-01-01T20:47:16.356Z,53.90
2023-01-01T20:49:43.701Z,53.80
2023-01-01T20:52:11.125Z,53.90
2023-01-01T20:54:39.037Z,53.90
2023-01-01T20:57:06.743Z,53.90
2023-01-01T20:59:38.748Z,53.80
2023-01-01T21:02:07.836Z,53.80
2023-01-01T21:04:38.954Z,53.90
2023-01-01T21:07:07.530Z,53.90
2023-01-01T21:09:34.784Z,54.00
2023-01-01T21:12:02.314Z,53.80
2023-01-01T21:14:29.631Z,53.80
2023-01-01T21:16:56.982Z,54.70
2023-01-01T21:19:26.897Z,53.90
2023-01-01T21:21:58.609Z,54.00
2023-01-01T21:24:32.968Z,54.10
2023-01-01T21:27:02.117Z,54.00
2023-01-01T21:29:31.721Z,54.00
2023-01-01T21:32:19.050Z,54.20
2023-01-01T21:34:48.951Z,54.40
2023-01-01T21:37:52.674Z,54.30
2023-01-01T21:40:35.816Z,54.20
2023-01-01T21:43:05.985Z,54.20
2023-01-01T21:45:33.339Z,54.20
2023-01-01T21:48:14.689Z,54.30
2023-01-01T21:50:42.970Z,54.40
2023-01-01T21:53:17.924Z,54.40
2023-01-01T21:55:52.680Z,54.40
2023-01-01T21:58:43.831Z,54.50
2023-01-01T22:01:18.227Z,54.50
2023-01-01T22:03:45.693Z,54.50
2023-01-01T22:06:14.540Z,54.50
2023-01-01T22:08:46.227Z,54.50
2023-01-01T22:11:16.103Z,54.60
2023-01-01T22:13:43.391Z,54.60
2023-01-01T22:16:15.145Z,54.60
2023-01-01T22:18:43.190Z,54.70
2023-01-01T22:21:30.707Z,54.70
2023-01-01T22:23:59.787Z,54.80
2023-01-01T22:26:28.015Z,54.80
2023-01-01T22:29:08.492Z,54.80
2023-01-01T22:31:41.485Z,54.80
2023-01-01T22:34:16.930Z,54.80
2023-01-01T22:36:44.218Z,54.80
2023-01-01T22:39:16.922Z,54.80
2023-01-01T22:41:45.635Z,54.90
2023-01-01T22:44:14.638Z,55.00
2023-01-01T22:46:42.165Z,55.00
2023-01-01T22:49:32.852Z,54.90
2023-01-01T22:52:01.445Z,54.90
2023-01-01T22:54:28.796Z,55.00
2023-01-01T22:56:56.181Z,55.00
2023-01-01T22:59:23.468Z,55.00
2023-01-01T23:01:50.798Z,54.90
2023-01-01T23:04:18.236Z,54.90
2023-01-01T23:06:45.609Z,54.90
2023-01-01T23:09:13.204Z,54.90
2023-01-01T23:11:40.578Z,55.00
2023-01-01T23:14:26.497Z,55.00
2023-01-01T23:16:53.749Z,55.50
2023-01-01T23:19:21.001Z,55.00
2023-01-01T23:21:48.411Z,55.00
2023-01-01T23:24:17.455Z,55.10
2023-01-01T23:26:45.539Z,55.10
2023-01-01T23:29:13.492Z,55.10
2023-01-01T23:31:42.001Z,55.10
2023-01-01T23:34:09.575Z,55.20
2023-01-01T23:36:37.394Z,55.20
2023-01-01T23:39:04.692Z,55.10
2023-01-01T23:41:32.305Z,55.20
2023-01-01T23:43:59.537Z,55.30
2023-01-01T23:46:26.962Z,55.20
2023-01-01T23:48:54.667Z,55.20
2023-01-01T23:51:21.969Z,55.20
2023-01-01T23:53:49.362Z,55.30
2023-01-01T23:56:16.731Z,55.30
2023-01-01T23:58:44.037Z,55.20
